createdAt,value
2019-01-23T00:03:16.346Z,24.77
2019-01-23T00:07:24.739Z,24.87
2019-01-23T00:11:32.737Z,22.73
2019-01-23T00:15:40.442Z,23.00
2019-01-23T00:19:48.078Z,21.17
2019-01-23T00:23:56.451Z,22.57
2019-01-23T00:28:04.486Z,23.47
2019-01-23T00:32:12.604Z,21.37
2019-01-23T00:36:20.220Z,26.10
2019-01-23T00:40:28.222Z,27.47
2019-01-23T00:44:36.240Z,28.90
2019-01-23T00:48:44.310Z,27.40
2019-01-23T00:52:52.403Z,24.10
2019-01-23T00:57:00.511Z,24.60
2019-01-23T01:01:08.355Z,25.97
2019-01-23T01:05:17.521Z,25.53
2019-01-23T01:09:25.450Z,28.03
2019-01-23T01:13:35.659Z,29.07
2019-01-23T01:17:43.840Z,26.30
2019-01-23T01:21:51.963Z,25.87
2019-01-23T01:25:59.939Z,27.77
2019-01-23T01:30:11.796Z,26.10
2019-01-23T01:34:19.422Z,22.80
2019-01-23T01:38:27.644Z,26.77
2019-01-23T01:42:36.043Z,26.10
2019-01-23T01:46:43.751Z,28.40
2019-01-23T01:50:51.477Z,27.67
2019-01-23T01:55:00.247Z,27.53
2019-01-23T01:59:08.267Z,26.73
2019-01-23T02:03:16.274Z,28.80
2019-01-23T02:07:24.623Z,27.00
2019-01-23T02:11:32.146Z,26.43
2019-01-23T02:15:40.360Z,26.93
2019-01-23T02:19:48.389Z,24.23
2019-01-23T02:23:56.502Z,26.80
2019-01-23T02:28:04.514Z,26.80
2019-01-23T02:32:12.750Z,30.20
2019-01-23T02:36:20.780Z,32.33
2019-01-23T02:40:28.498Z,32.93
2019-01-23T02:44:36.606Z,33.43
2019-01-23T02:48:45.078Z,33.17
2019-01-23T02:52:52.861Z,32.67
2019-01-23T02:57:00.592Z,34.17
2019-01-23T03:01:08.312Z,33.93
2019-01-23T03:05:18.129Z,35.63
2019-01-23T03:09:26.077Z,38.80
2019-01-23T03:13:34.131Z,37.10
2019-01-23T03:17:43.249Z,37.23
2019-01-23T03:21:50.992Z,42.00
2019-01-23T03:25:59.071Z,37.33
2019-01-23T03:30:09.406Z,37.63
2019-01-23T03:34:17.414Z,39.53
2019-01-23T03:38:25.495Z,43.43
2019-01-23T03:42:35.704Z,46.93
2019-01-23T03:46:43.550Z,47.53
2019-01-23T03:50:51.164Z,43.57
2019-01-23T03:54:59.059Z,43.53
2019-01-23T03:59:06.658Z,45.40
2019-01-23T04:03:15.134Z,42.10
2019-01-23T04:07:23.323Z,44.57
2019-01-23T04:11:30.833Z,49.70
2019-01-23T04:15:38.438Z,44.43
2019-01-23T04:19:46.403Z,35.23
2019-01-23T04:23:54.230Z,41.63
2019-01-23T04:28:02.259Z,48.40
2019-01-23T04:32:10.290Z,52.57
2019-01-23T04:36:18.023Z,53.63
2019-01-23T04:40:25.843Z,54.27
2019-01-23T04:44:33.704Z,41.53
2019-01-23T04:48:41.725Z,52.63
2019-01-23T04:53:20.696Z,46.53
2019-01-23T04:57:28.375Z,47.60
2019-01-23T05:01:36.539Z,47.43
2019-01-23T05:05:44.165Z,49.13
2019-01-23T05:09:51.997Z,47.37
2019-01-23T05:13:59.705Z,43.13
2019-01-23T05:18:07.314Z,43.07
2019-01-23T05:22:16.391Z,48.10
2019-01-23T05:26:24.513Z,51.90
2019-01-23T05:30:32.110Z,53.97
2019-01-23T05:34:40.514Z,49.67
2019-01-23T05:38:48.438Z,55.70
2019-01-23T05:42:56.552Z,51.17
2019-01-23T05:47:04.773Z,58.27
2019-01-23T05:51:12.805Z,62.10
2019-01-23T05:55:20.712Z,59.40
2019-01-23T05:59:28.488Z,60.90
2019-01-23T06:03:36.526Z,63.33
2019-01-23T06:07:44.354Z,59.17
2019-01-23T06:11:52.459Z,60.30
2019-01-23T06:16:00.103Z,60.90
2019-01-23T06:20:09.991Z,55.13
2019-01-23T06:24:18.199Z,53.10
2019-01-23T06:28:26.233Z,56.93
2019-01-23T06:32:35.199Z,51.17
2019-01-23T06:36:42.768Z,45.53
2019-01-23T06:40:50.487Z,42.27
2019-01-23T06:44:58.508Z,45.60
2019-01-23T06:49:06.581Z,46.07
2019-01-23T06:53:14.490Z,52.83
2019-01-23T06:57:22.506Z,53.93
2019-01-23T07:01:30.284Z,70.23
2019-01-23T07:05:38.198Z,50.07
2019-01-23T07:09:46.214Z,47.90
2019-01-23T07:13:54.113Z,49.90
2019-01-23T07:18:02.143Z,51.30
2019-01-23T07:22:10.247Z,49.47
2019-01-23T07:26:18.273Z,50.90
2019-01-23T07:30:34.701Z,55.13
2019-01-23T07:34:42.332Z,56.37
2019-01-23T07:38:50.385Z,40.10
2019-01-23T07:42:58.110Z,35.97
2019-01-23T07:47:06.295Z,41.43
2019-01-23T07:51:14.419Z,56.70
2019-01-23T07:55:22.185Z,58.13
2019-01-23T07:59:29.972Z,50.03
2019-01-23T08:03:38.179Z,36.50
2019-01-23T08:07:46.119Z,35.23
2019-01-23T08:11:53.664Z,43.43
2019-01-23T08:16:01.696Z,36.00
2019-01-23T08:20:12.365Z,37.03
2019-01-23T08:24:20.871Z,34.07
2019-01-23T08:28:28.995Z,37.57
2019-01-23T08:32:36.601Z,36.47
2019-01-23T08:36:44.322Z,40.77
2019-01-23T08:40:52.343Z,41.17
2019-01-23T08:45:00.401Z,38.87
2019-01-23T08:49:08.533Z,41.90
2019-01-23T08:53:16.504Z,32.33
2019-01-23T08:57:24.490Z,33.47
2019-01-23T09:01:32.535Z,27.40
2019-01-23T09:05:40.348Z,37.67
2019-01-23T09:09:48.662Z,26.33
2019-01-23T09:13:56.671Z,30.20
2019-01-23T09:18:04.755Z,32.53
2019-01-23T09:22:12.786Z,24.87
2019-01-23T09:26:21.797Z,29.13
2019-01-23T09:30:35.756Z,26.33
2019-01-23T09:35:12.654Z,23.17
2019-01-23T09:39:50.503Z,22.50
2019-01-23T09:44:49.720Z,24.20
2019-01-23T09:49:41.297Z,24.23
2019-01-23T09:54:04.518Z,24.80
2019-01-23T09:58:12.955Z,31.37
2019-01-23T10:02:21.043Z,28.10
2019-01-23T10:06:29.255Z,20.50
2019-01-23T10:10:37.054Z,22.70
2019-01-23T10:14:45.688Z,24.00
2019-01-23T10:18:56.114Z,18.13
2019-01-23T10:23:03.587Z,17.97
2019-01-23T10:27:11.443Z,19.70
2019-01-23T10:31:19.568Z,18.00
2019-01-23T10:35:27.598Z,18.77
2019-01-23T10:39:35.423Z,14.33
2019-01-23T10:43:43.035Z,12.33
2019-01-23T10:47:56.000Z,11.67
2019-01-23T10:52:02.038Z,15.37
2019-01-23T10:56:10.442Z,15.80
2019-01-23T11:00:19.193Z,20.10
2019-01-23T11:04:27.405Z,17.30
2019-01-23T11:08:35.119Z,15.03
2019-01-23T11:12:42.895Z,15.93
2019-01-23T11:16:50.626Z,13.93
2019-01-23T11:20:58.663Z,16.80
2019-01-23T11:25:08.671Z,14.90
2019-01-23T11:29:16.531Z,13.87
2019-01-23T11:33:24.150Z,16.03
2019-01-23T11:37:31.967Z,21.87
2019-01-23T11:41:40.202Z,13.37
2019-01-23T11:45:48.234Z,12.13
2019-01-23T11:49:56.044Z,10.43
2019-01-23T11:54:03.913Z,7.73
2019-01-23T11:58:12.041Z,8.30
2019-01-23T12:02:19.943Z,9.67
2019-01-23T12:06:28.019Z,9.20
2019-01-23T12:10:35.917Z,8.07
2019-01-23T12:14:43.936Z,9.03
2019-01-23T12:18:51.983Z,9.13
2019-01-23T12:23:00.084Z,10.40
2019-01-23T12:27:07.836Z,10.00
2019-01-23T12:31:15.623Z,12.43
2019-01-23T12:35:23.458Z,10.03
2019-01-23T12:39:31.297Z,10.27
2019-01-23T12:43:39.330Z,11.73
2019-01-23T12:47:47.138Z,10.53
2019-01-23T12:51:54.839Z,12.33
2019-01-23T12:56:02.558Z,10.00
2019-01-23T13:00:17.090Z,9.83
2019-01-23T13:04:25.114Z,12.40
2019-01-23T13:08:33.176Z,11.87
2019-01-23T13:12:41.302Z,12.27
2019-01-23T13:16:49.312Z,10.60
2019-01-23T13:20:57.035Z,10.90
2019-01-23T13:25:06.719Z,13.33
2019-01-23T13:29:14.276Z,13.57
2019-01-23T13:33:22.309Z,22.63
2019-01-23T13:37:30.346Z,30.53
2019-01-23T13:41:38.381Z,20.07
2019-01-23T13:45:46.036Z,14.47
2019-01-23T13:49:53.668Z,13.33
2019-01-23T13:54:01.401Z,15.43
2019-01-23T13:58:09.417Z,13.80
2019-01-23T14:02:17.433Z,14.93
2019-01-23T14:06:25.344Z,15.17
2019-01-23T14:10:33.382Z,17.20
2019-01-23T14:14:41.445Z,17.70
2019-01-23T14:18:49.495Z,17.10
2019-01-23T14:22:57.740Z,22.47
2019-01-23T14:27:05.484Z,18.47
2019-01-23T14:31:13.185Z,20.27
2019-01-23T14:35:21.065Z,20.83
2019-01-23T14:39:28.836Z,17.27
2019-01-23T14:43:36.608Z,19.10
2019-01-23T14:47:44.403Z,27.47
2019-01-23T14:51:52.131Z,27.90
2019-01-23T14:55:59.940Z,44.37
2019-01-23T15:00:11.689Z,77.00
2019-01-23T15:04:19.816Z,67.93
2019-01-23T15:08:27.559Z,65.00
2019-01-23T15:12:35.599Z,58.97
2019-01-23T15:16:43.447Z,59.60
2019-01-23T15:20:51.188Z,61.83
2019-01-23T15:24:58.838Z,57.47
2019-01-23T15:29:06.492Z,59.27
2019-01-23T15:33:14.258Z,56.23
2019-01-23T15:37:21.999Z,70.10
2019-01-23T15:41:29.525Z,56.10
2019-01-23T15:45:37.566Z,61.40
2019-01-23T15:49:45.311Z,55.90
2019-01-23T15:53:52.989Z,55.50
2019-01-23T15:58:01.031Z,52.80
2019-01-23T16:02:09.134Z,53.47
2019-01-23T16:06:17.077Z,36.27
2019-01-23T16:10:26.817Z,31.70
2019-01-23T16:14:34.865Z,60.33
2019-01-23T16:18:42.524Z,53.33
2019-01-23T16:22:50.301Z,48.73
2019-01-23T16:26:58.407Z,75.80
2019-01-23T16:31:06.373Z,63.07
2019-01-23T16:35:14.157Z,90.90
2019-01-23T16:39:22.244Z,91.00
2019-01-23T16:43:30.340Z,46.33
2019-01-23T16:47:38.288Z,51.87
2019-01-23T16:51:51.274Z,63.83
2019-01-23T16:55:55.833Z,52.67
2019-01-23T17:00:05.364Z,58.07
2019-01-23T17:04:15.392Z,56.97
2019-01-23T17:08:23.472Z,53.13
2019-01-23T17:12:31.308Z,49.50
2019-01-23T17:16:39.737Z,77.07
2019-01-23T17:20:49.513Z,97.13
2019-01-23T17:24:58.872Z,51.30
2019-01-23T17:29:06.759Z,45.37
2019-01-23T17:33:14.517Z,57.40
2019-01-23T17:37:25.451Z,61.77
2019-01-23T17:41:33.615Z,56.47
2019-01-23T17:45:41.762Z,35.07
2019-01-23T17:49:50.138Z,32.83
2019-01-23T17:53:58.389Z,40.67
2019-01-23T17:58:08.664Z,70.77
2019-01-23T18:02:16.817Z,49.87
2019-01-23T18:06:24.885Z,33.30
2019-01-23T18:10:33.251Z,35.63
2019-01-23T18:14:41.028Z,42.80
2019-01-23T18:18:49.454Z,26.10
2019-01-23T18:22:57.416Z,24.73
2019-01-23T18:27:05.656Z,28.83
2019-01-23T18:31:37.324Z,46.13
2019-01-23T18:36:24.259Z,38.43
2019-01-23T18:41:07.779Z,49.13
2019-01-23T18:45:58.407Z,41.73
2019-01-23T18:51:19.433Z,26.73
2019-01-23T18:55:28.615Z,34.67
2019-01-23T18:59:37.037Z,24.73
2019-01-23T19:03:49.692Z,25.53
2019-01-23T19:08:00.034Z,24.03
2019-01-23T19:12:08.889Z,23.80
2019-01-23T19:16:17.333Z,15.27
2019-01-23T19:20:25.513Z,23.47
2019-01-23T19:24:33.357Z,22.90
2019-01-23T19:28:41.639Z,21.03
2019-01-23T19:32:50.438Z,21.27
2019-01-23T19:36:59.230Z,16.80
2019-01-23T19:41:07.595Z,15.13
2019-01-23T19:45:20.997Z,14.40
2019-01-23T19:49:29.120Z,16.03
2019-01-23T19:53:37.448Z,18.33
2019-01-23T19:57:46.006Z,24.57
2019-01-23T20:01:54.249Z,16.37
2019-01-23T20:06:02.445Z,21.77
2019-01-23T20:10:14.506Z,23.87
2019-01-23T20:14:24.312Z,19.27
2019-01-23T20:18:31.961Z,22.83
2019-01-23T20:22:39.812Z,18.87
2019-01-23T20:26:47.763Z,26.70
2019-01-23T20:30:55.839Z,11.87
2019-01-23T20:35:03.493Z,11.13
2019-01-23T20:39:12.029Z,14.83
2019-01-23T20:43:20.134Z,14.70
2019-01-23T20:47:28.216Z,12.90
2019-01-23T20:51:35.860Z,12.80
2019-01-23T20:55:43.985Z,15.57
2019-01-23T20:59:51.856Z,13.83
2019-01-23T21:03:59.911Z,12.87
2019-01-23T21:08:08.336Z,14.87
2019-01-23T21:12:18.715Z,14.60
2019-01-23T21:16:25.684Z,17.13
2019-01-23T21:20:35.790Z,14.70
2019-01-23T21:24:43.546Z,13.40
2019-01-23T21:28:51.378Z,15.57
2019-01-23T21:32:59.019Z,12.63
2019-01-23T21:37:07.042Z,11.67
2019-01-23T21:41:15.093Z,12.00
2019-01-23T21:45:22.928Z,11.67
2019-01-23T21:49:30.938Z,8.47
2019-01-23T21:53:38.663Z,9.23
2019-01-23T21:57:47.025Z,7.60
2019-01-23T22:01:54.775Z,7.80
2019-01-23T22:06:02.807Z,9.27
2019-01-23T22:10:11.339Z,9.93
2019-01-23T22:14:19.147Z,10.67
2019-01-23T22:18:27.129Z,9.20
2019-01-23T22:22:35.115Z,7.70
2019-01-23T22:26:42.823Z,8.60
2019-01-23T22:30:50.671Z,8.53
2019-01-23T22:34:58.609Z,11.97
2019-01-23T22:39:09.297Z,9.93
2019-01-23T22:43:17.684Z,9.03
2019-01-23T22:47:26.689Z,8.73
2019-01-23T22:51:34.383Z,13.20
2019-01-23T22:55:42.393Z,8.97
2019-01-23T22:59:50.452Z,9.73
2019-01-23T23:04:03.482Z,8.77
2019-01-23T23:08:09.202Z,7.67
2019-01-23T23:12:17.213Z,7.13
2019-01-23T23:16:25.574Z,7.93
2019-01-23T23:20:33.305Z,10.53
2019-01-23T23:24:41.340Z,8.13
2019-01-23T23:28:49.253Z,7.77
2019-01-23T23:32:56.911Z,3.73
2019-01-23T23:37:04.625Z,3.90
2019-01-23T23:41:12.508Z,4.03
2019-01-23T23:45:20.347Z,4.10
2019-01-23T23:49:28.172Z,4.37
2019-01-23T23:53:36.173Z,4.63
2019-01-23T23:57:45.386Z,5.00
